This is the latest recevied weather packets stored in our database for station/object IN3MWE-10. If no packets are shown the sender has not sent any weather packets the latest 10 day(s).
| Time | Temp. | Humidity | Pressure | Rain* | Wind** | Luminosity | Snow |
|---|---|---|---|---|---|---|---|
| 1787568617 | 35.56° C | 32% | 981 hPa | - | - | - | - |
| 1787567717 | 33.89° C | 35% | 981.4 hPa | - | - | - | - |
| 1787566817 | 33.89° C | 32% | 981.5 hPa | - | - | - | - |
| 1787565917 | 33.33° C | 36% | 981.7 hPa | - | - | - | - |
| 1787565016 | 33.33° C | 36% | 981.9 hPa | - | - | - | - |
| 1787564116 | 31.11° C | 42% | 982.2 hPa | - | - | - | - |
| 1787563216 | 31.67° C | 40% | 982.5 hPa | - | - | - | - |
| 1787562316 | 30.56° C | 42% | 982.4 hPa | - | - | - | - |
| 1787561416 | 30° C | 43% | 982.8 hPa | - | - | - | - |
| 1787560516 | 29.44° C | 44% | 983 hPa | - | - | - | - |
| 1787559616 | 26.67° C | 57% | 983 hPa | - | - | - | - |
| 1787558716 | 26.67° C | 55% | 983.1 hPa | - | - | - | - |
| 1787557815 | 25.56° C | 63% | 983.3 hPa | - | - | - | - |
| 1787556915 | 23.33° C | 70% | 983.6 hPa | - | - | - | - |
| 1787556015 | 22.78° C | 72% | 983.6 hPa | - | - | - | - |
| 1787555115 | 23.33° C | 73% | 983.7 hPa | - | - | - | - |
| 1787554215 | 22.22° C | 78% | 983.6 hPa | - | - | - | - |
| 1787553315 | 22.22° C | 83% | 983.6 hPa | - | - | - | - |
| 1787552414 | 22.22° C | 82% | 983.7 hPa | - | - | - | - |
| 1787551514 | 21.67° C | 86% | 983.8 hPa | - | - | - | - |
| 1787550614 | 21.67° C | 88% | 983.9 hPa | - | - | - | - |
| 1787549714 | 21.11° C | 93% | 983.9 hPa | - | - | - | - |
| 1787548814 | 20.56° C | 99% | 983.9 hPa | - | - | - | - |
| 1787547914 | 20° C | 100% | 983.9 hPa | - | - | - | - |
| 1787547014 | 20° C | 100% | 983.7 hPa | - | - | - | - |
* Rain since midnight (hover to see other rain measurements)
** Current wind speed in m/s (hover to see current wind gust speed)